sensor_id;sensor_type;location;lat;lon;timestamp;P1;durP1;ratioP1;P2;durP2;ratioP2
23728;SDS011;12045;60.214;24.724;2022-11-02T00:02:07;15.30;;;5.38;;
23728;SDS011;12045;60.214;24.724;2022-11-02T00:04:34;12.65;;;4.10;;
23728;SDS011;12045;60.214;24.724;2022-11-02T00:07:02;10.40;;;3.40;;
23728;SDS011;12045;60.214;24.724;2022-11-02T00:09:29;13.20;;;4.38;;
23728;SDS011;12045;60.214;24.724;2022-11-02T00:11:57;13.60;;;4.07;;
23728;SDS011;12045;60.214;24.724;2022-11-02T00:14:24;14.15;;;4.25;;
23728;SDS011;12045;60.214;24.724;2022-11-02T00:16:52;13.35;;;4.45;;
23728;SDS011;12045;60.214;24.724;2022-11-02T00:19:19;17.17;;;5.00;;
23728;SDS011;12045;60.214;24.724;2022-11-02T00:21:47;15.32;;;4.43;;
23728;SDS011;12045;60.214;24.724;2022-11-02T00:24:14;18.17;;;4.95;;
23728;SDS011;12045;60.214;24.724;2022-11-02T00:26:42;20.45;;;5.25;;
23728;SDS011;12045;60.214;24.724;2022-11-02T00:29:10;14.65;;;4.55;;
23728;SDS011;12045;60.214;24.724;2022-11-02T00:31:37;20.52;;;5.25;;
23728;SDS011;12045;60.214;24.724;2022-11-02T00:34:04;12.77;;;5.00;;
23728;SDS011;12045;60.214;24.724;2022-11-02T00:36:32;19.77;;;5.03;;
23728;SDS011;12045;60.214;24.724;2022-11-02T00:39:00;17.35;;;4.85;;
23728;SDS011;12045;60.214;24.724;2022-11-02T00:41:27;22.10;;;5.18;;
23728;SDS011;12045;60.214;24.724;2022-11-02T00:43:55;14.27;;;4.90;;
23728;SDS011;12045;60.214;24.724;2022-11-02T00:46:22;16.33;;;4.90;;
23728;SDS011;12045;60.214;24.724;2022-11-02T00:48:50;15.98;;;4.63;;
23728;SDS011;12045;60.214;24.724;2022-11-02T00:51:18;19.10;;;5.10;;
23728;SDS011;12045;60.214;24.724;2022-11-02T00:53:45;15.20;;;4.63;;
23728;SDS011;12045;60.214;24.724;2022-11-02T00:56:13;18.73;;;5.47;;
23728;SDS011;12045;60.214;24.724;2022-11-02T00:58:41;26.20;;;6.07;;
23728;SDS011;12045;60.214;24.724;2022-11-02T01:01:08;23.13;;;5.45;;
23728;SDS011;12045;60.214;24.724;2022-11-02T01:03:37;13.98;;;4.63;;
23728;SDS011;12045;60.214;24.724;2022-11-02T01:06:09;14.93;;;5.03;;
23728;SDS011;12045;60.214;24.724;2022-11-02T01:08:38;25.67;;;5.05;;
23728;SDS011;12045;60.214;24.724;2022-11-02T01:11:14;30.20;;;5.13;;
23728;SDS011;12045;60.214;24.724;2022-11-02T01:13:46;25.08;;;6.00;;
23728;SDS011;12045;60.214;24.724;2022-11-02T01:16:15;20.77;;;5.15;;
23728;SDS011;12045;60.214;24.724;2022-11-02T01:18:43;17.73;;;4.85;;
23728;SDS011;12045;60.214;24.724;2022-11-02T01:21:11;27.63;;;4.72;;
23728;SDS011;12045;60.214;24.724;2022-11-02T01:23:39;15.07;;;4.07;;
23728;SDS011;12045;60.214;24.724;2022-11-02T01:26:07;25.45;;;4.50;;
23728;SDS011;12045;60.214;24.724;2022-11-02T01:28:36;18.13;;;4.40;;
23728;SDS011;12045;60.214;24.724;2022-11-02T01:31:05;15.95;;;4.10;;
23728;SDS011;12045;60.214;24.724;2022-11-02T01:33:34;16.00;;;4.47;;
23728;SDS011;12045;60.214;24.724;2022-11-02T01:36:05;21.77;;;4.75;;
23728;SDS011;12045;60.214;24.724;2022-11-02T01:38:33;17.88;;;4.40;;
23728;SDS011;12045;60.214;24.724;2022-11-02T01:41:00;16.80;;;5.03;;
23728;SDS011;12045;60.214;24.724;2022-11-02T01:43:33;12.98;;;4.25;;
23728;SDS011;12045;60.214;24.724;2022-11-02T01:48:34;10.43;;;4.07;;
23728;SDS011;12045;60.214;24.724;2022-11-02T01:51:08;12.55;;;3.35;;
23728;SDS011;12045;60.214;24.724;2022-11-02T01:53:39;11.57;;;3.78;;
23728;SDS011;12045;60.214;24.724;2022-11-02T01:56:10;11.98;;;3.95;;
23728;SDS011;12045;60.214;24.724;2022-11-02T01:58:41;13.85;;;4.20;;
23728;SDS011;12045;60.214;24.724;2022-11-02T02:01:11;13.73;;;4.07;;
23728;SDS011;12045;60.214;24.724;2022-11-02T02:03:39;19.23;;;4.32;;
23728;SDS011;12045;60.214;24.724;2022-11-02T02:06:09;11.70;;;3.80;;
23728;SDS011;12045;60.214;24.724;2022-11-02T02:08:41;21.55;;;4.57;;
23728;SDS011;12045;60.214;24.724;2022-11-02T02:11:25;15.13;;;4.10;;
23728;SDS011;12045;60.214;24.724;2022-11-02T02:13:55;7.93;;;3.42;;
23728;SDS011;12045;60.214;24.724;2022-11-02T02:17:16;9.13;;;3.20;;
23728;SDS011;12045;60.214;24.724;2022-11-02T02:22:08;9.48;;;3.42;;
23728;SDS011;12045;60.214;24.724;2022-11-02T02:28:16;10.00;;;3.47;;
23728;SDS011;12045;60.214;24.724;2022-11-02T02:30:55;8.13;;;3.13;;
23728;SDS011;12045;60.214;24.724;2022-11-02T02:37:34;8.13;;;2.88;;
23728;SDS011;12045;60.214;24.724;2022-11-02T02:40:16;8.38;;;3.03;;
23728;SDS011;12045;60.214;24.724;2022-11-02T02:42:51;8.80;;;3.25;;
23728;SDS011;12045;60.214;24.724;2022-11-02T02:51:06;9.52;;;2.97;;
23728;SDS011;12045;60.214;24.724;2022-11-02T02:53:43;8.63;;;3.00;;
23728;SDS011;12045;60.214;24.724;2022-11-02T02:56:17;7.65;;;2.90;;
23728;SDS011;12045;60.214;24.724;2022-11-02T03:01:18;5.18;;;2.30;;
23728;SDS011;12045;60.214;24.724;2022-11-02T03:03:46;6.63;;;2.30;;
23728;SDS011;12045;60.214;24.724;2022-11-02T03:17:27;4.90;;;2.20;;
23728;SDS011;12045;60.214;24.724;2022-11-02T03:25:50;5.68;;;2.13;;
23728;SDS011;12045;60.214;24.724;2022-11-02T03:31:50;5.43;;;1.90;;
23728;SDS011;12045;60.214;24.724;2022-11-02T03:34:12;6.20;;;2.10;;
23728;SDS011;12045;60.214;24.724;2022-11-02T03:36:59;6.70;;;1.80;;
23728;SDS011;12045;60.214;24.724;2022-11-02T03:39:43;4.53;;;2.00;;
23728;SDS011;12045;60.214;24.724;2022-11-02T03:42:24;4.72;;;1.90;;
23728;SDS011;12045;60.214;24.724;2022-11-02T03:44:55;3.63;;;1.73;;
23728;SDS011;12045;60.214;24.724;2022-11-02T03:47:26;4.38;;;1.90;;
23728;SDS011;12045;60.214;24.724;2022-11-02T03:49:58;6.85;;;2.60;;
23728;SDS011;12045;60.214;24.724;2022-11-02T03:52:28;5.32;;;2.05;;
23728;SDS011;12045;60.214;24.724;2022-11-02T03:55:03;5.50;;;2.15;;
23728;SDS011;12045;60.214;24.724;2022-11-02T03:57:33;4.15;;;1.90;;
23728;SDS011;12045;60.214;24.724;2022-11-02T04:00:07;6.22;;;2.17;;
23728;SDS011;12045;60.214;24.724;2022-11-02T04:02:35;6.07;;;2.03;;
23728;SDS011;12045;60.214;24.724;2022-11-02T04:05:05;4.43;;;2.17;;
23728;SDS011;12045;60.214;24.724;2022-11-02T04:07:33;5.00;;;2.00;;
23728;SDS011;12045;60.214;24.724;2022-11-02T04:10:25;5.30;;;2.00;;
23728;SDS011;12045;60.214;24.724;2022-11-02T04:12:52;5.80;;;2.15;;
23728;SDS011;12045;60.214;24.724;2022-11-02T04:15:38;3.95;;;1.80;;
23728;SDS011;12045;60.214;24.724;2022-11-02T04:18:06;2.80;;;1.42;;
23728;SDS011;12045;60.214;24.724;2022-11-02T04:20:52;3.70;;;1.67;;
23728;SDS011;12045;60.214;24.724;2022-11-02T04:23:20;3.65;;;1.65;;
23728;SDS011;12045;60.214;24.724;2022-11-02T04:26:06;2.70;;;1.50;;
23728;SDS011;12045;60.214;24.724;2022-11-02T04:28:33;3.95;;;1.88;;
23728;SDS011;12045;60.214;24.724;2022-11-02T04:31:01;3.67;;;1.75;;
23728;SDS011;12045;60.214;24.724;2022-11-02T04:33:28;3.58;;;1.85;;
23728;SDS011;12045;60.214;24.724;2022-11-02T04:35:59;3.67;;;1.83;;
23728;SDS011;12045;60.214;24.724;2022-11-02T04:38:28;3.05;;;1.80;;
23728;SDS011;12045;60.214;24.724;2022-11-02T04:43:57;8.40;;;3.38;;
23728;SDS011;12045;60.214;24.724;2022-11-02T04:46:25;12.38;;;4.30;;
23728;SDS011;12045;60.214;24.724;2022-11-02T04:48:55;10.57;;;4.35;;
23728;SDS011;12045;60.214;24.724;2022-11-02T04:51:23;10.48;;;3.80;;
23728;SDS011;12045;60.214;24.724;2022-11-02T04:53:52;11.93;;;5.60;;
23728;SDS011;12045;60.214;24.724;2022-11-02T04:56:20;19.08;;;8.20;;
23728;SDS011;12045;60.214;24.724;2022-11-02T04:58:49;19.15;;;8.55;;
23728;SDS011;12045;60.214;24.724;2022-11-02T05:01:17;20.00;;;7.15;;
23728;SDS011;12045;60.214;24.724;2022-11-02T05:03:49;23.77;;;8.88;;
23728;SDS011;12045;60.214;24.724;2022-11-02T05:06:18;23.75;;;8.30;;
23728;SDS011;12045;60.214;24.724;2022-11-02T05:08:46;27.13;;;8.25;;
23728;SDS011;12045;60.214;24.724;2022-11-02T05:11:14;25.00;;;8.40;;
23728;SDS011;12045;60.214;24.724;2022-11-02T05:13:42;23.35;;;7.97;;
23728;SDS011;12045;60.214;24.724;2022-11-02T05:16:11;23.20;;;7.78;;
23728;SDS011;12045;60.214;24.724;2022-11-02T05:18:40;22.00;;;7.35;;
23728;SDS011;12045;60.214;24.724;2022-11-02T05:21:08;42.05;;;13.15;;
23728;SDS011;12045;60.214;24.724;2022-11-02T05:23:37;37.10;;;13.25;;
23728;SDS011;12045;60.214;24.724;2022-11-02T05:26:06;58.03;;;15.93;;
23728;SDS011;12045;60.214;24.724;2022-11-02T05:28:37;51.63;;;16.45;;
23728;SDS011;12045;60.214;24.724;2022-11-02T05:31:05;46.03;;;16.52;;
23728;SDS011;12045;60.214;24.724;2022-11-02T05:33:33;66.28;;;18.50;;
23728;SDS011;12045;60.214;24.724;2022-11-02T05:36:01;53.60;;;15.82;;
23728;SDS011;12045;60.214;24.724;2022-11-02T05:38:29;50.33;;;15.52;;
23728;SDS011;12045;60.214;24.724;2022-11-02T05:40:57;48.10;;;14.38;;
23728;SDS011;12045;60.214;24.724;2022-11-02T05:43:26;44.80;;;15.00;;
23728;SDS011;12045;60.214;24.724;2022-11-02T05:45:54;41.10;;;14.48;;
23728;SDS011;12045;60.214;24.724;2022-11-02T05:48:22;41.88;;;13.52;;
23728;SDS011;12045;60.214;24.724;2022-11-02T05:50:57;39.40;;;13.93;;
23728;SDS011;12045;60.214;24.724;2022-11-02T05:53:26;38.85;;;13.85;;
23728;SDS011;12045;60.214;24.724;2022-11-02T05:55:58;37.72;;;13.68;;
23728;SDS011;12045;60.214;24.724;2022-11-02T05:58:30;27.02;;;10.25;;
23728;SDS011;12045;60.214;24.724;2022-11-02T06:00:59;24.60;;;10.13;;
23728;SDS011;12045;60.214;24.724;2022-11-02T06:03:31;23.77;;;9.82;;
23728;SDS011;12045;60.214;24.724;2022-11-02T06:06:01;20.88;;;9.48;;
23728;SDS011;12045;60.214;24.724;2022-11-02T06:08:31;22.10;;;9.95;;
23728;SDS011;12045;60.214;24.724;2022-11-02T06:11:03;17.27;;;8.50;;
23728;SDS011;12045;60.214;24.724;2022-11-02T06:13:33;20.92;;;8.70;;
23728;SDS011;12045;60.214;24.724;2022-11-02T06:16:07;21.52;;;9.85;;
23728;SDS011;12045;60.214;24.724;2022-11-02T06:18:38;17.30;;;8.88;;
23728;SDS011;12045;60.214;24.724;2022-11-02T06:21:07;18.38;;;8.70;;
23728;SDS011;12045;60.214;24.724;2022-11-02T06:27:00;17.60;;;7.68;;
23728;SDS011;12045;60.214;24.724;2022-11-02T06:29:41;13.18;;;6.75;;
23728;SDS011;12045;60.214;24.724;2022-11-02T06:32:21;13.45;;;7.05;;
23728;SDS011;12045;60.214;24.724;2022-11-02T06:34:52;19.60;;;7.97;;
23728;SDS011;12045;60.214;24.724;2022-11-02T06:37:27;17.50;;;7.50;;
23728;SDS011;12045;60.214;24.724;2022-11-02T06:40:01;14.45;;;7.20;;
23728;SDS011;12045;60.214;24.724;2022-11-02T06:42:29;15.75;;;7.63;;
23728;SDS011;12045;60.214;24.724;2022-11-02T06:45:10;13.60;;;7.28;;
23728;SDS011;12045;60.214;24.724;2022-11-02T06:47:41;17.05;;;7.97;;
23728;SDS011;12045;60.214;24.724;2022-11-02T06:50:13;16.40;;;7.63;;
23728;SDS011;12045;60.214;24.724;2022-11-02T06:52:45;17.65;;;8.25;;
23728;SDS011;12045;60.214;24.724;2022-11-02T06:55:14;20.92;;;9.75;;
23728;SDS011;12045;60.214;24.724;2022-11-02T06:57:45;18.33;;;8.20;;
23728;SDS011;12045;60.214;24.724;2022-11-02T07:00:14;12.15;;;6.63;;
23728;SDS011;12045;60.214;24.724;2022-11-02T07:03:01;14.27;;;6.70;;
23728;SDS011;12045;60.214;24.724;2022-11-02T07:05:48;19.10;;;8.80;;
23728;SDS011;12045;60.214;24.724;2022-11-02T07:08:18;20.23;;;9.20;;
23728;SDS011;12045;60.214;24.724;2022-11-02T07:10:47;23.20;;;9.02;;
23728;SDS011;12045;60.214;24.724;2022-11-02T07:13:24;18.17;;;9.32;;
23728;SDS011;12045;60.214;24.724;2022-11-02T07:16:02;18.60;;;8.00;;
23728;SDS011;12045;60.214;24.724;2022-11-02T07:18:34;18.80;;;8.82;;
23728;SDS011;12045;60.214;24.724;2022-11-02T07:21:02;17.45;;;8.02;;
23728;SDS011;12045;60.214;24.724;2022-11-02T07:23:33;20.25;;;8.30;;
23728;SDS011;12045;60.214;24.724;2022-11-02T07:26:01;23.73;;;9.13;;
23728;SDS011;12045;60.214;24.724;2022-11-02T07:28:31;20.17;;;8.25;;
23728;SDS011;12045;60.214;24.724;2022-11-02T07:31:05;14.13;;;6.85;;
23728;SDS011;12045;60.214;24.724;2022-11-02T07:33:32;16.40;;;6.53;;
23728;SDS011;12045;60.214;24.724;2022-11-02T07:36:05;11.95;;;6.45;;
23728;SDS011;12045;60.214;24.724;2022-11-02T07:38:34;15.15;;;6.90;;
23728;SDS011;12045;60.214;24.724;2022-11-02T07:41:04;11.98;;;6.65;;
23728;SDS011;12045;60.214;24.724;2022-11-02T07:43:34;12.57;;;6.15;;
23728;SDS011;12045;60.214;24.724;2022-11-02T07:49:42;15.82;;;7.25;;
23728;SDS011;12045;60.214;24.724;2022-11-02T07:52:18;14.77;;;6.63;;
23728;SDS011;12045;60.214;24.724;2022-11-02T07:54:48;11.68;;;5.22;;
23728;SDS011;12045;60.214;24.724;2022-11-02T07:57:16;11.50;;;5.28;;
23728;SDS011;12045;60.214;24.724;2022-11-02T07:59:43;6.68;;;3.80;;
23728;SDS011;12045;60.214;24.724;2022-11-02T08:02:16;7.05;;;4.22;;
23728;SDS011;12045;60.214;24.724;2022-11-02T08:04:43;10.45;;;4.63;;
23728;SDS011;12045;60.214;24.724;2022-11-02T08:07:11;10.52;;;4.90;;
23728;SDS011;12045;60.214;24.724;2022-11-02T08:09:40;7.68;;;4.90;;
23728;SDS011;12045;60.214;24.724;2022-11-02T08:12:08;10.38;;;4.28;;
23728;SDS011;12045;60.214;24.724;2022-11-02T08:14:36;7.70;;;4.03;;
23728;SDS011;12045;60.214;24.724;2022-11-02T08:17:04;6.70;;;3.58;;
23728;SDS011;12045;60.214;24.724;2022-11-02T08:19:31;7.20;;;3.28;;
23728;SDS011;12045;60.214;24.724;2022-11-02T08:21:59;7.43;;;3.40;;
23728;SDS011;12045;60.214;24.724;2022-11-02T08:24:36;6.03;;;3.50;;
23728;SDS011;12045;60.214;24.724;2022-11-02T08:27:11;7.25;;;3.17;;
23728;SDS011;12045;60.214;24.724;2022-11-02T08:29:42;5.15;;;2.70;;
23728;SDS011;12045;60.214;24.724;2022-11-02T08:32:18;4.45;;;2.50;;
23728;SDS011;12045;60.214;24.724;2022-11-02T08:34:46;6.78;;;3.30;;
23728;SDS011;12045;60.214;24.724;2022-11-02T08:37:14;7.55;;;2.80;;
23728;SDS011;12045;60.214;24.724;2022-11-02T08:39:42;7.75;;;3.20;;
23728;SDS011;12045;60.214;24.724;2022-11-02T08:42:13;7.45;;;3.10;;
23728;SDS011;12045;60.214;24.724;2022-11-02T08:44:42;7.95;;;3.70;;
23728;SDS011;12045;60.214;24.724;2022-11-02T08:47:10;8.23;;;3.88;;
23728;SDS011;12045;60.214;24.724;2022-11-02T08:49:39;7.90;;;3.70;;
23728;SDS011;12045;60.214;24.724;2022-11-02T08:52:07;8.82;;;4.10;;
23728;SDS011;12045;60.214;24.724;2022-11-02T08:54:36;6.93;;;3.20;;
23728;SDS011;12045;60.214;24.724;2022-11-02T08:57:03;6.22;;;3.05;;
23728;SDS011;12045;60.214;24.724;2022-11-02T08:59:38;4.90;;;3.00;;
23728;SDS011;12045;60.214;24.724;2022-11-02T09:02:07;7.60;;;3.33;;
23728;SDS011;12045;60.214;24.724;2022-11-02T09:04:38;5.30;;;2.63;;
23728;SDS011;12045;60.214;24.724;2022-11-02T09:07:06;6.65;;;2.85;;
23728;SDS011;12045;60.214;24.724;2022-11-02T09:09:35;4.68;;;2.63;;
23728;SDS011;12045;60.214;24.724;2022-11-02T09:12:02;5.80;;;2.60;;
23728;SDS011;12045;60.214;24.724;2022-11-02T09:14:30;6.10;;;2.83;;
23728;SDS011;12045;60.214;24.724;2022-11-02T09:16:58;3.72;;;2.40;;
23728;SDS011;12045;60.214;24.724;2022-11-02T09:19:27;4.35;;;1.90;;
23728;SDS011;12045;60.214;24.724;2022-11-02T09:21:55;3.20;;;1.92;;
23728;SDS011;12045;60.214;24.724;2022-11-02T09:24:23;3.95;;;2.30;;
23728;SDS011;12045;60.214;24.724;2022-11-02T09:27:00;3.65;;;2.38;;
23728;SDS011;12045;60.214;24.724;2022-11-02T09:29:29;4.75;;;2.83;;
23728;SDS011;12045;60.214;24.724;2022-11-02T09:31:56;7.43;;;2.80;;
23728;SDS011;12045;60.214;24.724;2022-11-02T09:34:26;5.78;;;2.60;;
23728;SDS011;12045;60.214;24.724;2022-11-02T09:36:55;6.25;;;2.45;;
23728;SDS011;12045;60.214;24.724;2022-11-02T09:42:43;5.68;;;3.00;;
23728;SDS011;12045;60.214;24.724;2022-11-02T09:46:08;5.85;;;3.25;;
23728;SDS011;12045;60.214;24.724;2022-11-02T09:48:41;6.03;;;3.28;;
23728;SDS011;12045;60.214;24.724;2022-11-02T09:55:02;6.30;;;3.28;;
23728;SDS011;12045;60.214;24.724;2022-11-02T10:00:34;10.20;;;3.85;;
23728;SDS011;12045;60.214;24.724;2022-11-02T10:06:21;9.23;;;4.10;;
23728;SDS011;12045;60.214;24.724;2022-11-02T10:14:54;12.88;;;4.43;;
23728;SDS011;12045;60.214;24.724;2022-11-02T10:17:16;10.32;;;4.88;;
23728;SDS011;12045;60.214;24.724;2022-11-02T10:19:50;9.88;;;5.07;;
23728;SDS011;12045;60.214;24.724;2022-11-02T10:22:30;10.57;;;4.72;;
23728;SDS011;12045;60.214;24.724;2022-11-02T10:25:03;8.25;;;5.10;;
23728;SDS011;12045;60.214;24.724;2022-11-02T10:27:36;11.98;;;5.05;;
23728;SDS011;12045;60.214;24.724;2022-11-02T10:30:15;11.07;;;5.25;;
23728;SDS011;12045;60.214;24.724;2022-11-02T10:32:46;11.77;;;5.78;;
23728;SDS011;12045;60.214;24.724;2022-11-02T10:35:30;11.05;;;5.50;;
23728;SDS011;12045;60.214;24.724;2022-11-02T10:38:37;13.02;;;5.90;;
23728;SDS011;12045;60.214;24.724;2022-11-02T10:47:18;13.45;;;6.30;;
23728;SDS011;12045;60.214;24.724;2022-11-02T10:50:00;12.75;;;6.28;;
23728;SDS011;12045;60.214;24.724;2022-11-02T10:52:51;13.25;;;6.13;;
23728;SDS011;12045;60.214;24.724;2022-11-02T11:01:31;14.32;;;5.80;;
23728;SDS011;12045;60.214;24.724;2022-11-02T11:04:03;15.25;;;5.55;;
23728;SDS011;12045;60.214;24.724;2022-11-02T11:06:39;13.55;;;6.00;;
23728;SDS011;12045;60.214;24.724;2022-11-02T11:09:28;13.55;;;5.30;;
23728;SDS011;12045;60.214;24.724;2022-11-02T11:12:16;13.73;;;6.03;;
23728;SDS011;12045;60.214;24.724;2022-11-02T11:14:50;13.32;;;6.05;;
23728;SDS011;12045;60.214;24.724;2022-11-02T11:17:41;11.45;;;5.43;;
23728;SDS011;12045;60.214;24.724;2022-11-02T11:20:34;13.00;;;5.38;;
23728;SDS011;12045;60.214;24.724;2022-11-02T11:25:52;14.88;;;5.28;;
23728;SDS011;12045;60.214;24.724;2022-11-02T11:28:54;13.63;;;5.75;;
23728;SDS011;12045;60.214;24.724;2022-11-02T11:31:23;12.02;;;6.05;;
23728;SDS011;12045;60.214;24.724;2022-11-02T11:41:53;14.05;;;6.45;;
23728;SDS011;12045;60.214;24.724;2022-11-02T11:44:21;14.57;;;5.90;;
23728;SDS011;12045;60.214;24.724;2022-11-02T11:46:50;12.70;;;6.30;;
23728;SDS011;12045;60.214;24.724;2022-11-02T11:49:23;12.65;;;6.65;;
23728;SDS011;12045;60.214;24.724;2022-11-02T11:52:02;14.93;;;5.93;;
23728;SDS011;12045;60.214;24.724;2022-11-02T11:54:33;11.68;;;6.38;;
23728;SDS011;12045;60.214;24.724;2022-11-02T12:06:07;10.18;;;4.43;;
23728;SDS011;12045;60.214;24.724;2022-11-02T12:23:05;9.27;;;4.75;;
23728;SDS011;12045;60.214;24.724;2022-11-02T12:31:36;11.93;;;5.63;;
23728;SDS011;12045;60.214;24.724;2022-11-02T12:39:51;9.20;;;5.15;;
23728;SDS011;12045;60.214;24.724;2022-11-02T12:42:34;9.52;;;5.63;;
23728;SDS011;12045;60.214;24.724;2022-11-02T12:48:01;11.48;;;6.40;;
23728;SDS011;12045;60.214;24.724;2022-11-02T12:50:48;10.07;;;5.47;;
23728;SDS011;12045;60.214;24.724;2022-11-02T12:53:47;9.75;;;6.22;;
23728;SDS011;12045;60.214;24.724;2022-11-02T13:01:56;10.93;;;6.00;;
23728;SDS011;12045;60.214;24.724;2022-11-02T13:04:43;12.30;;;5.70;;
23728;SDS011;12045;60.214;24.724;2022-11-02T13:07:19;9.93;;;5.13;;
23728;SDS011;12045;60.214;24.724;2022-11-02T13:09:55;12.30;;;5.93;;
23728;SDS011;12045;60.214;24.724;2022-11-02T13:12:31;14.70;;;5.60;;
23728;SDS011;12045;60.214;24.724;2022-11-02T13:15:02;7.57;;;5.03;;
23728;SDS011;12045;60.214;24.724;2022-11-02T13:17:43;8.05;;;4.50;;
23728;SDS011;12045;60.214;24.724;2022-11-02T13:23:05;9.38;;;5.25;;
23728;SDS011;12045;60.214;24.724;2022-11-02T13:25:55;9.70;;;5.03;;
23728;SDS011;12045;60.214;24.724;2022-11-02T13:28:30;9.13;;;4.50;;
23728;SDS011;12045;60.214;24.724;2022-11-02T13:31:43;8.27;;;4.45;;
23728;SDS011;12045;60.214;24.724;2022-11-02T13:34:18;9.25;;;4.60;;
23728;SDS011;12045;60.214;24.724;2022-11-02T13:37:03;7.22;;;4.10;;
23728;SDS011;12045;60.214;24.724;2022-11-02T13:39:44;7.45;;;3.80;;
23728;SDS011;12045;60.214;24.724;2022-11-02T13:48:05;7.25;;;4.10;;
23728;SDS011;12045;60.214;24.724;2022-11-02T13:50:41;6.32;;;3.55;;
23728;SDS011;12045;60.214;24.724;2022-11-02T13:53:15;6.93;;;3.90;;
23728;SDS011;12045;60.214;24.724;2022-11-02T13:55:50;6.57;;;3.65;;
23728;SDS011;12045;60.214;24.724;2022-11-02T13:58:27;9.05;;;4.10;;
23728;SDS011;12045;60.214;24.724;2022-11-02T14:01:01;7.97;;;3.50;;
23728;SDS011;12045;60.214;24.724;2022-11-02T14:04:17;5.78;;;3.33;;
23728;SDS011;12045;60.214;24.724;2022-11-02T14:06:27;5.80;;;3.20;;
23728;SDS011;12045;60.214;24.724;2022-11-02T14:14:42;6.43;;;3.15;;
23728;SDS011;12045;60.214;24.724;2022-11-02T14:17:09;6.15;;;3.60;;
23728;SDS011;12045;60.214;24.724;2022-11-02T14:22:14;5.93;;;3.47;;
23728;SDS011;12045;60.214;24.724;2022-11-02T14:40:47;5.20;;;2.92;;
23728;SDS011;12045;60.214;24.724;2022-11-02T14:49:05;6.60;;;3.97;;
23728;SDS011;12045;60.214;24.724;2022-11-02T14:51:53;7.20;;;3.53;;
23728;SDS011;12045;60.214;24.724;2022-11-02T14:54:31;6.40;;;3.58;;
23728;SDS011;12045;60.214;24.724;2022-11-02T14:57:04;9.73;;;4.10;;
23728;SDS011;12045;60.214;24.724;2022-11-02T14:59:44;5.63;;;3.40;;
23728;SDS011;12045;60.214;24.724;2022-11-02T15:04:54;6.63;;;2.90;;
23728;SDS011;12045;60.214;24.724;2022-11-02T15:07:33;5.22;;;2.72;;
23728;SDS011;12045;60.214;24.724;2022-11-02T15:10:03;6.57;;;2.95;;
23728;SDS011;12045;60.214;24.724;2022-11-02T15:12:43;8.40;;;3.13;;
23728;SDS011;12045;60.214;24.724;2022-11-02T15:15:30;7.40;;;2.58;;
23728;SDS011;12045;60.214;24.724;2022-11-02T15:20:45;4.00;;;2.45;;
23728;SDS011;12045;60.214;24.724;2022-11-02T15:23:14;5.78;;;2.80;;
23728;SDS011;12045;60.214;24.724;2022-11-02T15:25:57;4.97;;;2.40;;
23728;SDS011;12045;60.214;24.724;2022-11-02T15:28:27;4.20;;;2.72;;
23728;SDS011;12045;60.214;24.724;2022-11-02T15:30:59;4.28;;;2.50;;
23728;SDS011;12045;60.214;24.724;2022-11-02T15:33:36;5.25;;;2.70;;
23728;SDS011;12045;60.214;24.724;2022-11-02T15:36:16;4.45;;;2.78;;
23728;SDS011;12045;60.214;24.724;2022-11-02T15:38:47;4.93;;;2.28;;
23728;SDS011;12045;60.214;24.724;2022-11-02T15:44:02;4.93;;;2.17;;
23728;SDS011;12045;60.214;24.724;2022-11-02T15:46:49;2.50;;;1.80;;
23728;SDS011;12045;60.214;24.724;2022-11-02T15:49:34;3.03;;;1.90;;
23728;SDS011;12045;60.214;24.724;2022-11-02T15:58:35;6.05;;;2.45;;
23728;SDS011;12045;60.214;24.724;2022-11-02T16:04:00;4.13;;;2.70;;
23728;SDS011;12045;60.214;24.724;2022-11-02T16:06:38;5.40;;;2.75;;
23728;SDS011;12045;60.214;24.724;2022-11-02T16:12:13;3.50;;;2.50;;
23728;SDS011;12045;60.214;24.724;2022-11-02T16:14:59;3.92;;;2.67;;
23728;SDS011;12045;60.214;24.724;2022-11-02T16:17:35;5.68;;;2.40;;
23728;SDS011;12045;60.214;24.724;2022-11-02T16:20:22;6.95;;;2.50;;
23728;SDS011;12045;60.214;24.724;2022-11-02T16:22:55;3.65;;;2.00;;
23728;SDS011;12045;60.214;24.724;2022-11-02T16:25:39;6.38;;;2.35;;
23728;SDS011;12045;60.214;24.724;2022-11-02T16:28:21;2.78;;;1.73;;
23728;SDS011;12045;60.214;24.724;2022-11-02T16:30:57;3.10;;;1.85;;
23728;SDS011;12045;60.214;24.724;2022-11-02T16:33:37;3.03;;;2.15;;
23728;SDS011;12045;60.214;24.724;2022-11-02T16:36:10;3.28;;;2.20;;
23728;SDS011;12045;60.214;24.724;2022-11-02T16:38:54;2.83;;;2.03;;
23728;SDS011;12045;60.214;24.724;2022-11-02T16:42:01;4.47;;;2.13;;
23728;SDS011;12045;60.214;24.724;2022-11-02T16:44:35;3.50;;;2.50;;
23728;SDS011;12045;60.214;24.724;2022-11-02T16:49:34;5.53;;;2.42;;
23728;SDS011;12045;60.214;24.724;2022-11-02T16:54:49;3.75;;;1.95;;
23728;SDS011;12045;60.214;24.724;2022-11-02T16:57:18;4.20;;;2.20;;
23728;SDS011;12045;60.214;24.724;2022-11-02T17:02:23;2.92;;;2.00;;
23728;SDS011;12045;60.214;24.724;2022-11-02T17:04:57;5.00;;;1.85;;
23728;SDS011;12045;60.214;24.724;2022-11-02T17:10:03;2.15;;;1.60;;
23728;SDS011;12045;60.214;24.724;2022-11-02T17:12:39;4.10;;;1.63;;
23728;SDS011;12045;60.214;24.724;2022-11-02T17:15:22;2.35;;;1.40;;
23728;SDS011;12045;60.214;24.724;2022-11-02T17:20:35;2.60;;;1.90;;
23728;SDS011;12045;60.214;24.724;2022-11-02T17:23:05;3.95;;;1.83;;
23728;SDS011;12045;60.214;24.724;2022-11-02T17:25:59;3.05;;;2.03;;
23728;SDS011;12045;60.214;24.724;2022-11-02T17:33:55;4.57;;;2.30;;
23728;SDS011;12045;60.214;24.724;2022-11-02T17:36:26;3.65;;;2.10;;
23728;SDS011;12045;60.214;24.724;2022-11-02T17:38:54;6.30;;;2.33;;
23728;SDS011;12045;60.214;24.724;2022-11-02T17:41:27;6.60;;;2.55;;
23728;SDS011;12045;60.214;24.724;2022-11-02T17:44:19;5.57;;;2.80;;
23728;SDS011;12045;60.214;24.724;2022-11-02T17:46:47;3.45;;;2.70;;
23728;SDS011;12045;60.214;24.724;2022-11-02T17:49:14;6.28;;;3.00;;
23728;SDS011;12045;60.214;24.724;2022-11-02T17:51:41;4.47;;;3.20;;
23728;SDS011;12045;60.214;24.724;2022-11-02T17:54:12;4.05;;;2.92;;
23728;SDS011;12045;60.214;24.724;2022-11-02T17:56:40;4.28;;;2.70;;
23728;SDS011;12045;60.214;24.724;2022-11-02T17:59:08;3.60;;;2.67;;
23728;SDS011;12045;60.214;24.724;2022-11-02T18:01:36;3.65;;;2.40;;
23728;SDS011;12045;60.214;24.724;2022-11-02T18:04:03;3.20;;;2.70;;
23728;SDS011;12045;60.214;24.724;2022-11-02T18:06:31;3.53;;;2.50;;
23728;SDS011;12045;60.214;24.724;2022-11-02T18:08:59;3.38;;;2.67;;
23728;SDS011;12045;60.214;24.724;2022-11-02T18:11:45;3.83;;;2.60;;
23728;SDS011;12045;60.214;24.724;2022-11-02T18:14:13;4.20;;;2.75;;
23728;SDS011;12045;60.214;24.724;2022-11-02T18:16:43;3.78;;;2.50;;
23728;SDS011;12045;60.214;24.724;2022-11-02T18:19:11;5.35;;;2.70;;
23728;SDS011;12045;60.214;24.724;2022-11-02T18:21:39;6.20;;;2.40;;
23728;SDS011;12045;60.214;24.724;2022-11-02T18:24:06;4.20;;;2.60;;
23728;SDS011;12045;60.214;24.724;2022-11-02T18:26:34;4.18;;;2.22;;
23728;SDS011;12045;60.214;24.724;2022-11-02T18:29:02;3.85;;;2.25;;
23728;SDS011;12045;60.214;24.724;2022-11-02T18:31:31;3.20;;;2.05;;
23728;SDS011;12045;60.214;24.724;2022-11-02T18:34:00;2.70;;;2.08;;
23728;SDS011;12045;60.214;24.724;2022-11-02T18:36:28;2.00;;;1.80;;
23728;SDS011;12045;60.214;24.724;2022-11-02T18:38:55;3.35;;;1.95;;